Sant Martí Sacalm





Hora UTC 17:35
Temperatura 5.1 ºC
Humedad 96.5 %
Presión 1028.9 hPa
Pluja 0.0 mm
Velocidad viento 6.9 km/h
Dirección viento NNE
Radiación solar 0.1 W/m²

Datos diarios 2022-01-25



Hora UTC (invierno +1h; verano +2h)
Temperatura (ºC) Humedad (%) Presión (hPa) Velocidad viento (km/h) Precipitación (mm) Radiación solar (W/m²)
Hora UTC Aire Humedad Presión Vel. Dir. Vel. Max Dir. Intent. máx 5 min. Rad. Sol.
00:05 3.1 77.6 1028.4 10.4 SW 10.4 SW 0.0 0.1
00:10 3.1 78.1 1028.5 9.9 SW 11.7 SW 0.0 0.1
00:15 3.1 78.4 1028.4 10.6 SW 11.7 SW 0.0 0.1
00:20 3.2 77.8 1028.4 10.8 SW 11.7 SW 0.0 0.1
00:25 3.1 77.7 1028.4 10.4 SW 11.3 SW 0.0 0.1
00:30 3.1 78.1 1028.3 10.6 SW 11.7 SW 0.0 0.1
00:35 3.0 78.4 1028.3 10.9 SW 12.0 SW 0.0 0.1
00:40 3.1 77.4 1028.3 10.4 SW 11.7 SW 0.0 0.1
00:45 3.1 77.1 1028.4 10.2 SW 11.3 SW 0.0 0.1
00:50 3.0 77.3 1028.4 10.1 SW 11.3 SW 0.0 0.1
00:55 3.1 77.9 1028.3 10.9 SW 12.4 SW 0.0 0.1
01:00 3.2 77.8 1028.3 10.9 SW 12.0 SW 0.0 0.1
01:05 3.2 77.9 1028.3 10.0 SW 11.7 SW 0.0 0.1
01:10 3.2 78.0 1028.4 10.4 SSW 11.7 SSW 0.0 0.1
01:15 3.2 77.4 1028.4 10.6 SW 12.0 SW 0.0 0.1
01:20 3.4 76.0 1028.4 10.6 SW 12.0 SW 0.0 0.1
01:25 3.4 75.6 1028.5 9.9 SW 11.3 SW 0.0 0.1
01:30 3.4 76.1 1028.5 10.0 SW 11.3 SW 0.0 0.1
01:35 3.5 75.7 1028.5 11.1 SW 12.4 SW 0.0 0.1
01:40 3.2 76.6 1028.5 10.3 SW 12.0 SW 0.0 0.1
01:45 3.3 76.5 1028.5 10.8 SW 12.4 SW 0.0 0.1
01:50 3.3 76.2 1028.5 11.1 SW 12.4 SW 0.0 0.1
01:55 3.4 76.0 1028.5 11.2 SW 12.4 SW 0.0 0.1
02:00 3.4 75.7 1028.5 10.7 SW 12.0 SSW 0.0 0.1
02:05 3.5 75.4 1028.6 10.9 SSW 12.0 SSW 0.0 0.1
02:10 3.6 74.2 1028.6 11.5 SW 12.7 SW 0.0 0.1
02:15 3.5 74.1 1028.6 11.1 SW 12.7 SW 0.0 0.1
02:20 3.4 74.4 1028.6 11.1 SW 12.7 SSW 0.0 0.1
02:25 3.0 75.1 1028.6 11.5 SW 13.1 SW 0.0 0.1
02:30 2.8 75.0 1028.6 9.8 SW 11.7 SW 0.0 0.1
02:35 2.7 74.3 1028.6 9.4 SW 10.6 SW 0.0 0.1
02:40 3.0 72.5 1028.5 9.7 SW 11.0 SW 0.0 0.1
02:45 3.0 72.0 1028.5 8.7 SW 10.3 SW 0.0 0.1
02:50 3.1 72.1 1028.5 9.8 SW 12.4 SW 0.0 0.1
02:55 3.1 71.8 1028.5 9.8 SW 11.7 SW 0.0 0.1
03:00 3.3 70.9 1028.4 9.5 SW 11.3 SW 0.0 0.1
03:05 3.4 70.2 1028.4 10.2 SW 12.4 SW 0.0 0.1
03:10 3.3 70.4 1028.4 9.3 SW 11.0 SW 0.0 0.1
03:15 3.3 70.5 1028.4 9.9 SW 12.0 SW 0.0 0.1
03:20 3.4 69.8 1028.4 9.3 SSW 11.3 SW 0.0 0.1
03:25 3.4 69.3 1028.4 9.2 SSW 12.0 SSW 0.0 0.1
03:30 3.7 67.8 1028.4 9.9 SW 11.7 SW 0.0 0.1
03:35 3.7 67.8 1028.4 9.1 SW 10.3 SW 0.0 0.1
03:40 3.7 67.4 1028.3 9.3 SSW 10.3 SW 0.0 0.1
03:45 3.7 67.7 1028.4 8.4 SSW 9.9 SSW 0.0 0.1
03:50 3.8 68.3 1028.4 6.7 SSW 8.1 SSW 0.0 0.1
03:55 3.9 68.0 1028.3 6.4 SSW 7.4 SSW 0.0 0.1
04:00 4.0 67.0 1028.4 6.8 SSW 7.4 SSW 0.0 0.1
04:05 4.1 66.4 1028.4 7.0 SW 7.8 SSW 0.0 0.1
04:10 4.0 66.6 1028.4 7.7 SW 9.5 SW 0.0 0.1
04:15 3.9 66.3 1028.3 8.4 SW 9.2 SW 0.0 0.1
04:20 3.7 66.6 1028.3 8.2 SW 8.8 SW 0.0 0.1
04:25 3.6 66.5 1028.3 7.8 SW 8.5 SW 0.0 0.1
04:30 3.5 66.1 1028.3 7.5 SW 8.1 SW 0.0 0.1
04:35 3.6 66.0 1028.3 8.1 SSW 8.8 SSW 0.0 0.1
04:40 3.6 67.2 1028.3 9.7 SSW 10.3 SSW 0.0 0.1
04:45 3.5 68.1 1028.3 9.5 SW 10.6 SSW 0.0 0.1
04:50 3.4 68.2 1028.3 9.8 SSW 10.6 SSW 0.0 0.1
04:55 3.3 68.6 1028.3 9.9 SSW 11.0 SSW 0.0 0.1
05:00 3.2 68.5 1028.3 10.2 SSW 11.3 SSW 0.0 0.1
05:05 3.2 68.0 1028.3 9.3 SSW 10.3 SSW 0.0 0.1
05:10 3.3 66.9 1028.2 9.7 SSW 10.6 SSW 0.0 0.1
05:15 3.5 65.6 1028.3 9.6 SSW 10.3 SW 0.0 0.1
05:20 3.5 65.9 1028.3 9.5 SW 10.3 SSW 0.0 0.1
05:25 3.4 66.1 1028.3 9.9 SW 11.0 SW 0.0 0.1
05:30 3.3 66.0 1028.2 10.7 SW 11.7 SW 0.0 0.1
05:35 3.3 65.7 1028.2 10.6 SSW 11.7 SSW 0.0 0.1
05:40 3.3 64.7 1028.2 10.9 SW 11.7 SSW 0.0 0.1
05:45 3.3 63.7 1028.2 10.4 SSW 11.3 SW 0.0 0.1
05:50 3.4 62.9 1028.2 10.7 SSW 11.7 SSW 0.0 0.1
05:55 3.3 63.2 1028.3 10.4 SSW 11.7 SSW 0.0 0.1
06:00 3.2 62.6 1028.3 10.5 SSW 12.0 SW 0.0 0.1
06:05 3.0 62.7 1028.3 11.5 SW 13.4 SW 0.0 0.1
06:10 2.8 63.0 1028.4 11.4 SW 13.4 SW 0.0 0.1
06:15 2.8 63.3 1028.4 12.1 SW 14.1 SW 0.0 0.1
06:20 2.9 62.8 1028.4 12.1 SW 13.1 SW 0.0 0.1
06:25 2.9 63.7 1028.4 11.7 SW 13.1 SW 0.0 0.1
06:30 2.6 66.3 1028.4 12.7 SW 14.5 SW 0.0 0.1
06:35 2.7 66.9 1028.4 11.5 SW 13.4 SW 0.0 0.1
06:40 2.7 67.7 1028.5 11.6 SW 13.8 SW 0.0 0.1
06:45 2.5 67.5 1028.5 11.7 SW 14.1 SW 0.0 0.1
06:50 2.5 66.4 1028.5 11.5 SW 14.5 SW 0.0 0.2
06:55 2.5 66.2 1028.5 11.4 SW 14.5 SW 0.0 0.5
07:00 2.3 66.9 1028.5 11.8 SW 14.5 SW 0.0 1.2
07:05 2.2 67.4 1028.5 12.2 SW 14.1 SW 0.0 2.4
07:10 2.2 68.4 1028.6 11.5 SW 14.5 SW 0.0 3.9
07:15 2.1 69.1 1028.6 11.5 SW 13.1 SW 0.0 5.8
07:20 2.1 70.0 1028.6 12.2 SW 14.5 SW 0.0 8.0
07:25 2.2 69.3 1028.7 11.8 SW 14.1 SW 0.0 10.3
07:30 2.2 69.1 1028.7 11.6 SW 14.1 SW 0.0 12.4
07:35 2.3 67.9 1028.7 11.8 SW 14.1 SW 0.0 15.1
07:40 2.5 66.3 1028.8 12.0 SW 14.8 SSW 0.0 56.8
07:45 2.6 64.8 1028.8 12.1 SW 15.2 SW 0.0 80.9
07:50 2.5 65.5 1028.8 11.9 SW 13.8 SW 0.0 94.2
07:55 2.4 65.4 1028.9 12.3 SW 14.5 SW 0.0 106.6
08:00 2.6 63.6 1028.9 11.8 SW 14.8 SSW 0.0 119.6
08:05 2.6 64.6 1028.9 11.9 SW 14.1 SW 0.0 133.0
08:10 2.8 66.0 1028.9 12.4 SW 14.5 SW 0.0 146.7
08:15 3.1 66.0 1028.9 12.3 SW 15.5 SW 0.0 160.0
08:20 3.2 65.6 1028.9 12.5 SW 15.5 SW 0.0 173.6
08:25 3.2 65.9 1029.0 12.9 SW 14.1 SW 0.0 187.1
08:30 3.2 65.5 1029.0 12.8 SW 14.5 SW 0.0 200.4
08:35 3.3 64.3 1029.0 12.6 SW 14.5 SW 0.0 213.8
08:40 3.3 65.2 1029.0 12.0 SW 13.8 SW 0.0 227.1
08:45 3.4 64.9 1029.0 11.6 SW 13.4 SSW 0.0 240.5
08:50 3.7 62.9 1029.1 11.7 SW 13.8 SW 0.0 253.9
08:55 4.0 61.7 1029.1 10.6 SW 12.7 SW 0.0 266.9
09:00 4.1 61.0 1029.1 11.1 SW 13.4 SW 0.0 279.8
09:05 4.3 60.5 1029.2 10.8 SW 13.4 SW 0.0 292.4
09:10 4.6 61.0 1029.2 10.0 SW 13.8 SW 0.0 304.8
09:15 4.8 60.4 1029.3 9.4 SW 13.1 SW 0.0 316.9
09:20 5.1 60.4 1029.4 8.5 SW 12.7 SW 0.0 299.9
09:25 5.2 61.1 1029.4 7.8 SW 9.9 SW 0.0 321.3
09:30 5.1 62.2 1029.4 9.2 SSW 12.0 SSW 0.0 351.6
09:35 5.1 62.4 1029.4 11.7 SW 14.8 SW 0.0 362.6
09:40 5.1 62.4 1029.4 12.1 SW 15.2 SW 0.0 373.2
09:45 5.2 62.6 1029.5 11.0 SW 14.5 SW 0.0 384.1
09:50 5.2 62.6 1029.5 11.3 SW 13.4 SW 0.0 394.0
09:55 5.4 62.2 1029.5 10.6 SW 13.8 SW 0.0 403.6
10:00 5.5 62.0 1029.6 9.4 SW 12.4 SSW 0.0 412.6
10:05 5.7 61.9 1029.6 8.8 SW 11.3 SW 0.0 421.6
10:10 5.9 60.9 1029.6 9.9 SW 12.4 SW 0.0 430.0
10:15 6.0 60.3 1029.6 12.4 SW 16.6 SW 0.0 438.1
10:20 6.1 59.8 1029.6 13.4 SW 16.6 SW 0.0 445.8
10:25 6.2 60.0 1029.6 11.7 SW 15.2 SW 0.0 453.8
10:30 6.6 58.9 1029.6 10.1 SW 15.5 SW 0.0 460.9
10:35 6.8 58.7 1029.6 8.4 SW 11.7 SW 0.0 467.8
10:40 6.8 58.2 1029.6 9.4 SW 12.4 SW 0.0 474.7
10:45 6.8 57.8 1029.6 9.6 SW 12.7 SW 0.0 480.9
10:50 6.9 56.1 1029.6 11.0 SW 13.4 SSW 0.0 486.6
10:55 7.1 56.2 1029.6 9.6 SW 12.0 SW 0.0 492.3
11:00 7.4 55.9 1029.6 9.4 SW 12.4 SW 0.0 498.3
11:05 7.7 55.2 1029.5 10.5 SW 14.8 SW 0.0 503.5
11:10 7.8 55.3 1029.5 11.1 SW 14.1 SW 0.0 506.4
11:15 7.8 55.0 1029.5 11.6 SW 15.2 SW 0.0 507.4
11:20 7.9 54.8 1029.5 13.0 SW 16.2 SW 0.0 508.2
11:25 7.9 54.6 1029.5 12.4 SW 17.0 SW 0.0 518.9
11:30 8.3 54.1 1029.4 10.8 SW 13.4 SW 0.0 522.3
11:35 8.4 53.5 1029.4 11.1 SW 14.1 SW 0.0 524.4
11:40 8.2 53.8 1029.4 10.7 SW 13.8 SSW 0.0 526.3
11:45 8.6 53.6 1029.4 9.4 SW 14.8 SW 0.0 527.7
11:50 8.6 53.2 1029.3 8.6 SW 13.1 WSW 0.0 492.9
11:55 8.8 52.2 1029.3 8.8 SW 13.1 WSW 0.0 409.8
12:00 9.1 51.0 1029.3 9.9 SW 13.8 SW 0.0 344.2
12:05 9.2 49.7 1029.2 8.9 SW 14.5 WSW 0.0 473.3
12:10 9.3 53.7 1029.3 5.4 WSW 9.9 WSW 0.0 366.4
12:15 8.9 59.5 1029.2 2.1 NNE 6.0 WSW 0.0 410.4
12:20 8.2 61.6 1029.2 2.3 NNE 5.3 NNE 0.0 459.8
12:25 8.3 62.0 1029.1 1.5 NE 5.7 WSW 0.0 525.8
12:30 8.8 59.0 1029.1 3.3 WSW 11.0 WSW 0.0 524.5
12:35 9.4 55.3 1029.1 4.4 SW 11.3 SW 0.0 521.0
12:40 9.8 55.1 1029.1 4.1 SSW 11.0 SW 0.0 518.0
12:45 9.9 53.4 1029.0 6.5 SW 10.3 SW 0.0 514.3
12:50 10.0 52.9 1028.9 6.8 SW 11.3 SSW 0.0 511.4
12:55 10.1 51.6 1028.9 6.9 WSW 10.6 SW 0.0 508.0
13:00 10.2 51.0 1028.8 7.1 SW 11.7 WSW 0.0 504.4
13:05 10.3 49.8 1028.8 8.0 WSW 12.0 W 0.0 499.9
13:10 10.0 53.4 1028.7 5.5 SW 10.6 WSW 0.0 495.4
13:15 9.7 57.3 1028.7 2.6 NNW 9.2 SSW 0.0 490.1
13:20 9.3 59.1 1028.7 3.3 N 9.5 SW 0.0 483.6
13:25 8.8 63.1 1028.7 2.1 NNE 5.3 NNE 0.0 477.0
13:30 8.8 64.1 1028.6 2.3 NE 5.0 ENE 0.0 471.3
13:35 8.9 63.8 1028.6 3.1 NNE 4.6 NNE 0.0 463.3
13:40 8.8 66.2 1028.6 4.3 NNE 6.4 N 0.0 455.5
13:45 8.3 70.2 1028.5 6.6 NNE 10.3 NNE 0.0 445.4
13:50 8.0 72.3 1028.5 4.8 NNE 7.4 NNE 0.0 436.0
13:55 8.2 71.4 1028.4 2.5 NNE 3.9 NNE 0.0 428.2
14:00 8.8 68.4 1028.4 2.4 NNE 5.3 NNE 0.0 420.0
14:05 8.9 69.0 1028.4 2.3 NNE 5.0 NE 0.0 410.5
14:10 9.0 69.7 1028.4 3.8 NE 6.0 NE 0.0 400.8
14:15 9.2 68.9 1028.4 5.0 NNE 6.7 N 0.0 391.1
14:20 8.9 70.1 1028.4 4.2 NNE 6.0 NNE 0.0 381.5
14:25 8.9 70.5 1028.4 1.7 NE 4.2 NE 0.0 370.9
14:30 8.9 70.9 1028.4 4.3 NNE 6.4 NNE 0.0 360.1
14:35 8.7 71.9 1028.4 5.3 NNE 7.8 NNE 0.0 349.4
14:40 8.4 74.0 1028.4 5.1 NNE 7.8 NNE 0.0 337.1
14:45 8.3 74.8 1028.4 3.9 NNE 6.0 NNE 0.0 325.5
14:50 8.7 74.2 1028.4 0.9 NE 3.2 ENE 0.0 314.7
14:55 9.2 71.7 1028.5 1.6 ENE 7.8 E 0.0 302.6
15:00 9.4 71.0 1028.4 2.1 NE 4.6 NE 0.0 290.1
15:05 9.3 72.1 1028.4 2.2 SE 6.0 SSW 0.0 278.0
15:10 10.2 68.9 1028.4 3.1 S 8.8 SSW 0.0 264.2
15:15 10.4 67.2 1028.5 4.5 S 8.1 SSW 0.0 218.1
15:20 10.0 69.8 1028.5 4.6 S 7.8 SSW 0.0 240.7
15:25 9.9 69.3 1028.4 2.3 S 6.4 SSE 0.0 227.1
15:30 9.4 71.5 1028.4 3.0 SE 7.1 S 0.0 215.0
15:35 9.4 71.3 1028.4 1.6 NE 3.9 ENE 0.0 201.8
15:40 8.9 73.3 1028.4 3.4 NE 6.4 NE 0.0 188.4
15:45 8.3 75.8 1028.4 6.5 NNE 8.1 NNE 0.0 175.7
15:50 7.8 78.1 1028.4 6.6 NNE 8.5 NNE 0.0 160.8
15:55 7.6 79.5 1028.5 6.4 NNE 8.1 NNE 0.0 150.1
16:00 7.4 80.5 1028.5 6.1 NNE 7.4 NNE 0.0 138.6
16:05 7.3 81.2 1028.5 7.0 NNE 9.2 NNE 0.0 126.3
16:10 7.1 82.1 1028.5 7.1 NNE 11.7 N 0.0 113.9
16:15 6.8 83.8 1028.5 8.9 N 13.1 NNW 0.0 100.9
16:20 6.5 86.1 1028.6 11.3 N 15.2 N 0.0 89.9
16:25 6.2 88.0 1028.6 9.2 N 12.0 NNE 0.0 78.5
16:30 6.1 89.3 1028.6 9.6 N 12.4 N 0.0 67.0
16:35 6.1 89.7 1028.6 9.0 NNE 13.1 NNE 0.0 55.9
16:40 5.9 90.7 1028.7 9.7 NNE 13.4 N 0.0 45.9
16:45 5.7 91.5 1028.7 9.6 NNE 13.1 N 0.0 36.0
16:50 5.6 92.5 1028.7 9.7 NNE 12.4 NNE 0.0 29.0
16:55 5.4 93.5 1028.7 9.1 NNE 11.7 NNE 0.0 17.7
17:00 5.3 94.5 1028.8 8.7 NNE 11.7 NNE 0.0 7.6
17:05 5.2 95.1 1028.8 8.4 NNE 12.0 NNE 0.0 4.1
17:10 5.1 95.5 1028.9 7.9 NNE 13.1 NNE 0.0 2.4
17:15 5.1 96.0 1028.9 9.0 NNE 12.0 N 0.0 1.4
17:20 5.2 96.4 1028.9 8.6 NNE 12.4 NNE 0.0 0.7
17:25 5.2 96.3 1028.9 6.5 NNE 9.2 NE 0.0 0.3
17:30 5.2 96.5 1028.9 8.1 NNE 11.3 NNE 0.0 0.1
17:35 5.1 96.5 1028.9 6.9 NNE 9.2 NNE 0.0 0.1
Máxima 10.5 96.5 1029.6 13.4 SW 17.0 SW 0.0 527.7
Mínima 2.0 49.7 1028.2
Total 0.0